sensor_id;sensor_type;location;lat;lon;timestamp;P1;durP1;ratioP1;P2;durP2;ratioP2
3791;SDS011;1911;53.768;11.474;2022-11-20T00:01:07;6.67;;;4.70;;
3791;SDS011;1911;53.768;11.474;2022-11-20T00:03:59;10.13;;;5.07;;
3791;SDS011;1911;53.768;11.474;2022-11-20T00:06:26;7.67;;;5.20;;
3791;SDS011;1911;53.768;11.474;2022-11-20T00:08:56;9.13;;;5.35;;
3791;SDS011;1911;53.768;11.474;2022-11-20T00:11:24;9.00;;;4.60;;
3791;SDS011;1911;53.768;11.474;2022-11-20T00:13:52;12.60;;;5.90;;
3791;SDS011;1911;53.768;11.474;2022-11-20T00:16:23;10.80;;;5.75;;
3791;SDS011;1911;53.768;11.474;2022-11-20T00:18:50;6.63;;;4.55;;
3791;SDS011;1911;53.768;11.474;2022-11-20T00:23:43;8.93;;;4.85;;
3791;SDS011;1911;53.768;11.474;2022-11-20T00:26:10;11.90;;;6.33;;
3791;SDS011;1911;53.768;11.474;2022-11-20T00:28:40;8.20;;;4.85;;
3791;SDS011;1911;53.768;11.474;2022-11-20T00:31:07;11.38;;;6.03;;
3791;SDS011;1911;53.768;11.474;2022-11-20T00:33:34;9.80;;;5.85;;
3791;SDS011;1911;53.768;11.474;2022-11-20T00:36:00;10.00;;;5.63;;
3791;SDS011;1911;53.768;11.474;2022-11-20T00:38:31;9.05;;;5.20;;
3791;SDS011;1911;53.768;11.474;2022-11-20T00:40:58;8.30;;;4.90;;
3791;SDS011;1911;53.768;11.474;2022-11-20T00:43:24;8.98;;;5.45;;
3791;SDS011;1911;53.768;11.474;2022-11-20T00:45:51;11.88;;;6.28;;
3791;SDS011;1911;53.768;11.474;2022-11-20T00:48:21;10.43;;;4.90;;
3791;SDS011;1911;53.768;11.474;2022-11-20T00:50:47;12.23;;;6.20;;
3791;SDS011;1911;53.768;11.474;2022-11-20T00:53:12;9.50;;;6.23;;
3791;SDS011;1911;53.768;11.474;2022-11-20T00:55:39;10.00;;;6.07;;
3791;SDS011;1911;53.768;11.474;2022-11-20T00:58:04;8.53;;;5.33;;
3791;SDS011;1911;53.768;11.474;2022-11-20T01:00:30;9.93;;;5.50;;
3791;SDS011;1911;53.768;11.474;2022-11-20T01:02:55;9.50;;;5.50;;
3791;SDS011;1911;53.768;11.474;2022-11-20T01:05:21;9.77;;;5.63;;
3791;SDS011;1911;53.768;11.474;2022-11-20T01:07:47;11.17;;;5.60;;
3791;SDS011;1911;53.768;11.474;2022-11-20T01:10:12;11.93;;;6.57;;
3791;SDS011;1911;53.768;11.474;2022-11-20T01:12:38;9.60;;;6.10;;
3791;SDS011;1911;53.768;11.474;2022-11-20T01:15:03;8.13;;;5.57;;
3791;SDS011;1911;53.768;11.474;2022-11-20T01:17:30;10.02;;;6.10;;
3791;SDS011;1911;53.768;11.474;2022-11-20T01:19:56;12.52;;;6.78;;
3791;SDS011;1911;53.768;11.474;2022-11-20T01:22:22;12.10;;;6.47;;
3791;SDS011;1911;53.768;11.474;2022-11-20T01:24:48;9.67;;;5.93;;
3791;SDS011;1911;53.768;11.474;2022-11-20T01:27:13;11.10;;;6.20;;
3791;SDS011;1911;53.768;11.474;2022-11-20T01:29:39;9.50;;;6.00;;
3791;SDS011;1911;53.768;11.474;2022-11-20T01:32:05;13.90;;;7.30;;
3791;SDS011;1911;53.768;11.474;2022-11-20T01:34:30;11.07;;;6.60;;
3791;SDS011;1911;53.768;11.474;2022-11-20T01:36:56;10.70;;;6.50;;
3791;SDS011;1911;53.768;11.474;2022-11-20T01:39:22;12.10;;;6.40;;
3791;SDS011;1911;53.768;11.474;2022-11-20T01:41:50;11.90;;;6.93;;
3791;SDS011;1911;53.768;11.474;2022-11-20T01:47:07;15.23;;;7.20;;
3791;SDS011;1911;53.768;11.474;2022-11-20T01:49:36;13.05;;;7.22;;
3791;SDS011;1911;53.768;11.474;2022-11-20T01:54:44;11.55;;;5.30;;
3791;SDS011;1911;53.768;11.474;2022-11-20T01:57:17;10.75;;;5.68;;
3791;SDS011;1911;53.768;11.474;2022-11-20T01:59:46;12.00;;;6.75;;
3791;SDS011;1911;53.768;11.474;2022-11-20T02:02:17;10.48;;;6.47;;
3791;SDS011;1911;53.768;11.474;2022-11-20T02:04:44;9.68;;;6.07;;
3791;SDS011;1911;53.768;11.474;2022-11-20T02:07:10;11.63;;;6.60;;
3791;SDS011;1911;53.768;11.474;2022-11-20T02:09:36;11.07;;;6.40;;
3791;SDS011;1911;53.768;11.474;2022-11-20T02:12:02;11.40;;;7.07;;
3791;SDS011;1911;53.768;11.474;2022-11-20T02:14:28;8.38;;;5.88;;
3791;SDS011;1911;53.768;11.474;2022-11-20T02:16:54;11.60;;;6.80;;
3791;SDS011;1911;53.768;11.474;2022-11-20T02:19:22;8.20;;;5.37;;
3791;SDS011;1911;53.768;11.474;2022-11-20T02:22:10;10.90;;;5.90;;
3791;SDS011;1911;53.768;11.474;2022-11-20T02:25:04;13.88;;;7.72;;
3791;SDS011;1911;53.768;11.474;2022-11-20T02:27:32;9.27;;;4.97;;
3791;SDS011;1911;53.768;11.474;2022-11-20T02:30:00;12.20;;;7.70;;
3791;SDS011;1911;53.768;11.474;2022-11-20T02:32:29;10.95;;;6.32;;
3791;SDS011;1911;53.768;11.474;2022-11-20T02:34:56;13.27;;;6.75;;
3791;SDS011;1911;53.768;11.474;2022-11-20T02:37:22;11.90;;;6.90;;
3791;SDS011;1911;53.768;11.474;2022-11-20T02:39:57;11.30;;;6.70;;
3791;SDS011;1911;53.768;11.474;2022-11-20T02:42:23;10.97;;;6.00;;
3791;SDS011;1911;53.768;11.474;2022-11-20T02:44:49;8.47;;;5.37;;
3791;SDS011;1911;53.768;11.474;2022-11-20T02:47:14;9.73;;;5.97;;
3791;SDS011;1911;53.768;11.474;2022-11-20T02:49:40;9.73;;;6.00;;
3791;SDS011;1911;53.768;11.474;2022-11-20T02:52:05;10.33;;;6.47;;
3791;SDS011;1911;53.768;11.474;2022-11-20T02:54:31;11.80;;;6.17;;
3791;SDS011;1911;53.768;11.474;2022-11-20T02:56:57;9.90;;;5.73;;
3791;SDS011;1911;53.768;11.474;2022-11-20T02:59:22;9.33;;;5.47;;
3791;SDS011;1911;53.768;11.474;2022-11-20T03:01:48;12.97;;;6.70;;
3791;SDS011;1911;53.768;11.474;2022-11-20T03:04:14;11.30;;;6.50;;
3791;SDS011;1911;53.768;11.474;2022-11-20T03:06:39;8.53;;;6.00;;
3791;SDS011;1911;53.768;11.474;2022-11-20T03:09:05;9.50;;;6.03;;
3791;SDS011;1911;53.768;11.474;2022-11-20T03:11:31;8.65;;;5.30;;
3791;SDS011;1911;53.768;11.474;2022-11-20T03:13:56;10.70;;;6.30;;
3791;SDS011;1911;53.768;11.474;2022-11-20T03:16:22;11.87;;;6.00;;
3791;SDS011;1911;53.768;11.474;2022-11-20T03:18:49;8.70;;;5.88;;
3791;SDS011;1911;53.768;11.474;2022-11-20T03:21:16;11.77;;;6.22;;
3791;SDS011;1911;53.768;11.474;2022-11-20T03:23:42;12.20;;;7.00;;
3791;SDS011;1911;53.768;11.474;2022-11-20T03:26:13;12.80;;;7.37;;
3791;SDS011;1911;53.768;11.474;2022-11-20T03:28:47;10.85;;;6.30;;
3791;SDS011;1911;53.768;11.474;2022-11-20T03:31:16;13.23;;;7.07;;
3791;SDS011;1911;53.768;11.474;2022-11-20T03:33:43;8.52;;;5.80;;
3791;SDS011;1911;53.768;11.474;2022-11-20T03:36:09;10.85;;;6.43;;
3791;SDS011;1911;53.768;11.474;2022-11-20T03:38:37;11.73;;;6.45;;
3791;SDS011;1911;53.768;11.474;2022-11-20T03:41:04;13.10;;;6.60;;
3791;SDS011;1911;53.768;11.474;2022-11-20T03:43:34;10.82;;;6.45;;
3791;SDS011;1911;53.768;11.474;2022-11-20T03:46:00;15.27;;;8.13;;
3791;SDS011;1911;53.768;11.474;2022-11-20T03:48:27;10.90;;;6.90;;
3791;SDS011;1911;53.768;11.474;2022-11-20T03:50:53;13.67;;;7.73;;
3791;SDS011;1911;53.768;11.474;2022-11-20T03:53:31;12.30;;;7.45;;
3791;SDS011;1911;53.768;11.474;2022-11-20T03:55:56;11.97;;;6.80;;
3791;SDS011;1911;53.768;11.474;2022-11-20T03:58:22;12.53;;;6.70;;
3791;SDS011;1911;53.768;11.474;2022-11-20T04:00:48;13.83;;;6.50;;
3791;SDS011;1911;53.768;11.474;2022-11-20T04:03:13;13.37;;;7.27;;
3791;SDS011;1911;53.768;11.474;2022-11-20T04:05:39;12.27;;;7.73;;
3791;SDS011;1911;53.768;11.474;2022-11-20T04:08:05;13.87;;;8.20;;
3791;SDS011;1911;53.768;11.474;2022-11-20T04:10:30;9.13;;;5.80;;
3791;SDS011;1911;53.768;11.474;2022-11-20T04:12:56;13.50;;;7.57;;
3791;SDS011;1911;53.768;11.474;2022-11-20T04:15:22;15.23;;;7.63;;
3791;SDS011;1911;53.768;11.474;2022-11-20T04:17:47;9.53;;;5.90;;
3791;SDS011;1911;53.768;11.474;2022-11-20T04:20:13;12.27;;;6.87;;
3791;SDS011;1911;53.768;11.474;2022-11-20T04:22:39;7.90;;;4.88;;
3791;SDS011;1911;53.768;11.474;2022-11-20T04:25:05;13.67;;;6.17;;
3791;SDS011;1911;53.768;11.474;2022-11-20T04:27:31;13.07;;;6.47;;
3791;SDS011;1911;53.768;11.474;2022-11-20T04:29:56;13.80;;;6.60;;
3791;SDS011;1911;53.768;11.474;2022-11-20T04:32:22;13.50;;;7.40;;
3791;SDS011;1911;53.768;11.474;2022-11-20T04:34:47;13.87;;;7.40;;
3791;SDS011;1911;53.768;11.474;2022-11-20T04:37:13;16.10;;;7.37;;
3791;SDS011;1911;53.768;11.474;2022-11-20T04:39:39;10.90;;;5.90;;
3791;SDS011;1911;53.768;11.474;2022-11-20T04:42:04;12.73;;;6.83;;
3791;SDS011;1911;53.768;11.474;2022-11-20T04:45:09;10.70;;;5.93;;
3791;SDS011;1911;53.768;11.474;2022-11-20T04:47:34;12.27;;;7.23;;
3791;SDS011;1911;53.768;11.474;2022-11-20T04:50:00;17.50;;;7.73;;
3791;SDS011;1911;53.768;11.474;2022-11-20T04:52:26;12.17;;;7.17;;
3791;SDS011;1911;53.768;11.474;2022-11-20T04:54:51;11.17;;;6.90;;
3791;SDS011;1911;53.768;11.474;2022-11-20T04:57:18;11.68;;;6.40;;
3791;SDS011;1911;53.768;11.474;2022-11-20T04:59:44;14.98;;;6.65;;
3791;SDS011;1911;53.768;11.474;2022-11-20T05:02:10;13.47;;;7.70;;
3791;SDS011;1911;53.768;11.474;2022-11-20T05:04:36;14.00;;;7.77;;
3791;SDS011;1911;53.768;11.474;2022-11-20T05:07:01;15.33;;;7.23;;
3791;SDS011;1911;53.768;11.474;2022-11-20T05:09:27;15.57;;;7.40;;
3791;SDS011;1911;53.768;11.474;2022-11-20T05:11:53;12.83;;;6.93;;
3791;SDS011;1911;53.768;11.474;2022-11-20T05:14:18;16.57;;;8.40;;
3791;SDS011;1911;53.768;11.474;2022-11-20T05:16:44;13.33;;;7.70;;
3791;SDS011;1911;53.768;11.474;2022-11-20T05:19:10;15.90;;;7.03;;
3791;SDS011;1911;53.768;11.474;2022-11-20T05:21:35;14.07;;;8.37;;
3791;SDS011;1911;53.768;11.474;2022-11-20T05:24:01;12.60;;;7.30;;
3791;SDS011;1911;53.768;11.474;2022-11-20T05:26:27;12.37;;;6.77;;
3791;SDS011;1911;53.768;11.474;2022-11-20T05:28:52;14.60;;;7.53;;
3791;SDS011;1911;53.768;11.474;2022-11-20T05:31:19;13.90;;;6.73;;
3791;SDS011;1911;53.768;11.474;2022-11-20T05:33:46;12.57;;;6.60;;
3791;SDS011;1911;53.768;11.474;2022-11-20T05:36:13;12.47;;;6.73;;
3791;SDS011;1911;53.768;11.474;2022-11-20T05:38:39;10.48;;;6.28;;
3791;SDS011;1911;53.768;11.474;2022-11-20T05:41:06;13.40;;;7.77;;
3791;SDS011;1911;53.768;11.474;2022-11-20T05:43:40;12.88;;;6.72;;
3791;SDS011;1911;53.768;11.474;2022-11-20T05:46:08;11.35;;;7.07;;
3791;SDS011;1911;53.768;11.474;2022-11-20T05:48:35;12.05;;;7.35;;
3791;SDS011;1911;53.768;11.474;2022-11-20T05:51:02;14.50;;;7.10;;
3791;SDS011;1911;53.768;11.474;2022-11-20T05:53:29;12.90;;;6.40;;
3791;SDS011;1911;53.768;11.474;2022-11-20T05:56:06;14.88;;;7.00;;
3791;SDS011;1911;53.768;11.474;2022-11-20T05:58:35;15.45;;;7.20;;
3791;SDS011;1911;53.768;11.474;2022-11-20T06:03:35;16.50;;;9.57;;
3791;SDS011;1911;53.768;11.474;2022-11-20T06:06:02;13.93;;;7.13;;
3791;SDS011;1911;53.768;11.474;2022-11-20T06:08:29;16.08;;;7.82;;
3791;SDS011;1911;53.768;11.474;2022-11-20T06:10:55;12.63;;;7.53;;
3791;SDS011;1911;53.768;11.474;2022-11-20T06:13:21;11.80;;;7.40;;
3791;SDS011;1911;53.768;11.474;2022-11-20T06:15:48;14.98;;;7.65;;
3791;SDS011;1911;53.768;11.474;2022-11-20T06:18:17;12.05;;;6.65;;
3791;SDS011;1911;53.768;11.474;2022-11-20T06:20:44;15.68;;;7.20;;
3791;SDS011;1911;53.768;11.474;2022-11-20T06:23:10;11.90;;;7.35;;
3791;SDS011;1911;53.768;11.474;2022-11-20T06:25:42;10.83;;;6.17;;
3791;SDS011;1911;53.768;11.474;2022-11-20T06:28:08;10.73;;;5.82;;
3791;SDS011;1911;53.768;11.474;2022-11-20T06:30:34;12.85;;;6.80;;
3791;SDS011;1911;53.768;11.474;2022-11-20T06:33:00;11.82;;;6.18;;
3791;SDS011;1911;53.768;11.474;2022-11-20T06:35:26;9.40;;;5.57;;
3791;SDS011;1911;53.768;11.474;2022-11-20T06:37:51;9.97;;;5.87;;
3791;SDS011;1911;53.768;11.474;2022-11-20T06:40:17;12.00;;;5.90;;
3791;SDS011;1911;53.768;11.474;2022-11-20T06:42:42;8.30;;;5.40;;
3791;SDS011;1911;53.768;11.474;2022-11-20T06:45:08;9.43;;;6.17;;
3791;SDS011;1911;53.768;11.474;2022-11-20T06:47:34;9.57;;;5.70;;
3791;SDS011;1911;53.768;11.474;2022-11-20T06:50:00;9.17;;;5.10;;
3791;SDS011;1911;53.768;11.474;2022-11-20T06:52:25;12.07;;;5.80;;
3791;SDS011;1911;53.768;11.474;2022-11-20T06:54:51;10.30;;;6.47;;
3791;SDS011;1911;53.768;11.474;2022-11-20T06:57:16;8.47;;;5.30;;
3791;SDS011;1911;53.768;11.474;2022-11-20T06:59:42;9.40;;;6.10;;
3791;SDS011;1911;53.768;11.474;2022-11-20T07:02:11;9.37;;;5.80;;
3791;SDS011;1911;53.768;11.474;2022-11-20T07:04:37;9.38;;;5.20;;
3791;SDS011;1911;53.768;11.474;2022-11-20T07:07:03;7.57;;;5.30;;
3791;SDS011;1911;53.768;11.474;2022-11-20T07:09:30;10.25;;;5.55;;
3791;SDS011;1911;53.768;11.474;2022-11-20T07:11:56;10.40;;;5.63;;
3791;SDS011;1911;53.768;11.474;2022-11-20T07:14:22;11.30;;;5.13;;
3791;SDS011;1911;53.768;11.474;2022-11-20T07:16:48;8.80;;;5.10;;
3791;SDS011;1911;53.768;11.474;2022-11-20T07:19:13;9.37;;;5.73;;
3791;SDS011;1911;53.768;11.474;2022-11-20T07:21:39;8.27;;;5.20;;
3791;SDS011;1911;53.768;11.474;2022-11-20T07:24:05;8.63;;;6.20;;
3791;SDS011;1911;53.768;11.474;2022-11-20T07:26:30;9.87;;;5.57;;
3791;SDS011;1911;53.768;11.474;2022-11-20T07:28:56;10.43;;;5.50;;
3791;SDS011;1911;53.768;11.474;2022-11-20T07:31:22;7.63;;;4.93;;
3791;SDS011;1911;53.768;11.474;2022-11-20T07:33:47;8.70;;;5.27;;
3791;SDS011;1911;53.768;11.474;2022-11-20T07:36:13;10.17;;;5.30;;
3791;SDS011;1911;53.768;11.474;2022-11-20T07:38:39;8.70;;;5.50;;
3791;SDS011;1911;53.768;11.474;2022-11-20T07:41:12;7.82;;;5.10;;
3791;SDS011;1911;53.768;11.474;2022-11-20T07:43:37;6.50;;;4.20;;
3791;SDS011;1911;53.768;11.474;2022-11-20T07:46:03;8.03;;;5.27;;
3791;SDS011;1911;53.768;11.474;2022-11-20T07:48:31;8.32;;;4.90;;
3791;SDS011;1911;53.768;11.474;2022-11-20T07:50:57;7.30;;;5.22;;
3791;SDS011;1911;53.768;11.474;2022-11-20T07:53:23;8.27;;;5.37;;
3791;SDS011;1911;53.768;11.474;2022-11-20T07:55:49;9.43;;;5.18;;
3791;SDS011;1911;53.768;11.474;2022-11-20T07:58:17;9.15;;;5.47;;
3791;SDS011;1911;53.768;11.474;2022-11-20T08:00:44;10.05;;;6.03;;
3791;SDS011;1911;53.768;11.474;2022-11-20T08:03:09;8.00;;;5.40;;
3791;SDS011;1911;53.768;11.474;2022-11-20T08:05:35;9.13;;;5.03;;
3791;SDS011;1911;53.768;11.474;2022-11-20T08:08:03;7.40;;;4.78;;
3791;SDS011;1911;53.768;11.474;2022-11-20T08:10:28;9.17;;;4.80;;
3791;SDS011;1911;53.768;11.474;2022-11-20T08:12:54;7.00;;;4.57;;
3791;SDS011;1911;53.768;11.474;2022-11-20T08:15:39;7.45;;;4.43;;
3791;SDS011;1911;53.768;11.474;2022-11-20T08:18:06;7.88;;;4.47;;
3791;SDS011;1911;53.768;11.474;2022-11-20T08:20:36;10.23;;;5.45;;
3791;SDS011;1911;53.768;11.474;2022-11-20T08:23:07;6.90;;;4.82;;
3791;SDS011;1911;53.768;11.474;2022-11-20T08:25:36;7.05;;;4.57;;
3791;SDS011;1911;53.768;11.474;2022-11-20T08:28:04;7.25;;;5.00;;
3791;SDS011;1911;53.768;11.474;2022-11-20T08:30:31;7.22;;;5.10;;
3791;SDS011;1911;53.768;11.474;2022-11-20T08:33:01;9.10;;;4.93;;
3791;SDS011;1911;53.768;11.474;2022-11-20T08:35:32;8.00;;;5.13;;
3791;SDS011;1911;53.768;11.474;2022-11-20T08:37:58;8.82;;;5.78;;
3791;SDS011;1911;53.768;11.474;2022-11-20T08:40:24;8.80;;;5.83;;
3791;SDS011;1911;53.768;11.474;2022-11-20T08:42:50;8.53;;;5.13;;
3791;SDS011;1911;53.768;11.474;2022-11-20T08:45:17;6.40;;;4.88;;
3791;SDS011;1911;53.768;11.474;2022-11-20T08:47:44;9.07;;;5.53;;
3791;SDS011;1911;53.768;11.474;2022-11-20T08:50:10;9.07;;;5.25;;
3791;SDS011;1911;53.768;11.474;2022-11-20T08:52:37;10.32;;;5.00;;
3791;SDS011;1911;53.768;11.474;2022-11-20T08:55:03;8.10;;;4.67;;
3791;SDS011;1911;53.768;11.474;2022-11-20T08:57:32;9.20;;;4.93;;
3791;SDS011;1911;53.768;11.474;2022-11-20T08:59:59;7.65;;;4.60;;
3791;SDS011;1911;53.768;11.474;2022-11-20T09:02:25;8.67;;;4.90;;
3791;SDS011;1911;53.768;11.474;2022-11-20T09:04:50;10.30;;;5.22;;
3791;SDS011;1911;53.768;11.474;2022-11-20T09:07:16;5.60;;;3.70;;
3791;SDS011;1911;53.768;11.474;2022-11-20T09:09:42;10.00;;;5.27;;
3791;SDS011;1911;53.768;11.474;2022-11-20T09:12:07;7.00;;;4.67;;
3791;SDS011;1911;53.768;11.474;2022-11-20T09:14:33;10.43;;;5.80;;
3791;SDS011;1911;53.768;11.474;2022-11-20T09:16:59;8.33;;;4.90;;
3791;SDS011;1911;53.768;11.474;2022-11-20T09:19:24;7.37;;;4.20;;
3791;SDS011;1911;53.768;11.474;2022-11-20T09:21:50;7.77;;;4.00;;
3791;SDS011;1911;53.768;11.474;2022-11-20T09:24:16;9.40;;;4.38;;
3791;SDS011;1911;53.768;11.474;2022-11-20T09:26:43;6.07;;;3.85;;
3791;SDS011;1911;53.768;11.474;2022-11-20T09:29:08;6.80;;;4.37;;
3791;SDS011;1911;53.768;11.474;2022-11-20T09:31:34;6.40;;;3.90;;
3791;SDS011;1911;53.768;11.474;2022-11-20T09:34:00;8.10;;;4.97;;
3791;SDS011;1911;53.768;11.474;2022-11-20T09:36:25;7.93;;;4.47;;
3791;SDS011;1911;53.768;11.474;2022-11-20T09:38:51;4.40;;;3.00;;
3791;SDS011;1911;53.768;11.474;2022-11-20T09:47:02;7.05;;;4.10;;
3791;SDS011;1911;53.768;11.474;2022-11-20T09:55:26;5.50;;;2.53;;
3791;SDS011;1911;53.768;11.474;2022-11-20T09:57:54;7.47;;;4.50;;
3791;SDS011;1911;53.768;11.474;2022-11-20T10:00:23;8.10;;;5.10;;
3791;SDS011;1911;53.768;11.474;2022-11-20T10:02:52;8.33;;;4.70;;
3791;SDS011;1911;53.768;11.474;2022-11-20T10:08:02;7.88;;;5.20;;
3791;SDS011;1911;53.768;11.474;2022-11-20T10:10:49;7.88;;;4.38;;
3791;SDS011;1911;53.768;11.474;2022-11-20T10:13:27;8.18;;;4.93;;
3791;SDS011;1911;53.768;11.474;2022-11-20T10:16:40;12.15;;;7.40;;
3791;SDS011;1911;53.768;11.474;2022-11-20T10:30:00;16.65;;;8.80;;
3791;SDS011;1911;53.768;11.474;2022-11-20T10:32:38;8.90;;;4.25;;
3791;SDS011;1911;53.768;11.474;2022-11-20T10:37:51;7.35;;;4.07;;
3791;SDS011;1911;53.768;11.474;2022-11-20T10:46:07;7.00;;;3.85;;
3791;SDS011;1911;53.768;11.474;2022-11-20T10:48:37;7.20;;;4.60;;
3791;SDS011;1911;53.768;11.474;2022-11-20T10:56:45;7.10;;;3.92;;
3791;SDS011;1911;53.768;11.474;2022-11-20T11:01:44;6.65;;;4.38;;
3791;SDS011;1911;53.768;11.474;2022-11-20T11:07:09;9.50;;;5.15;;
3791;SDS011;1911;53.768;11.474;2022-11-20T11:09:56;9.70;;;5.45;;
3791;SDS011;1911;53.768;11.474;2022-11-20T11:12:23;6.85;;;4.38;;
3791;SDS011;1911;53.768;11.474;2022-11-20T11:14:51;6.38;;;4.18;;
3791;SDS011;1911;53.768;11.474;2022-11-20T11:17:20;5.83;;;4.00;;
3791;SDS011;1911;53.768;11.474;2022-11-20T11:19:56;7.30;;;4.17;;
3791;SDS011;1911;53.768;11.474;2022-11-20T11:22:46;6.10;;;4.23;;
3791;SDS011;1911;53.768;11.474;2022-11-20T11:25:24;7.73;;;4.40;;
3791;SDS011;1911;53.768;11.474;2022-11-20T11:27:50;5.93;;;3.90;;
3791;SDS011;1911;53.768;11.474;2022-11-20T11:30:17;6.67;;;4.87;;
3791;SDS011;1911;53.768;11.474;2022-11-20T11:32:44;7.63;;;4.10;;
3791;SDS011;1911;53.768;11.474;2022-11-20T11:35:23;6.63;;;3.93;;
3791;SDS011;1911;53.768;11.474;2022-11-20T11:37:51;7.47;;;4.50;;
3791;SDS011;1911;53.768;11.474;2022-11-20T11:40:19;5.40;;;4.23;;
3791;SDS011;1911;53.768;11.474;2022-11-20T11:42:56;5.30;;;3.70;;
3791;SDS011;1911;53.768;11.474;2022-11-20T11:45:24;4.67;;;3.57;;
3791;SDS011;1911;53.768;11.474;2022-11-20T11:47:50;4.07;;;2.30;;
3791;SDS011;1911;53.768;11.474;2022-11-20T11:50:22;4.65;;;3.50;;
3791;SDS011;1911;53.768;11.474;2022-11-20T11:55:45;4.28;;;2.80;;
3791;SDS011;1911;53.768;11.474;2022-11-20T12:00:51;3.17;;;1.95;;
3791;SDS011;1911;53.768;11.474;2022-11-20T12:03:20;4.57;;;3.05;;
3791;SDS011;1911;53.768;11.474;2022-11-20T12:05:59;2.50;;;2.30;;
3791;SDS011;1911;53.768;11.474;2022-11-20T12:08:31;6.00;;;2.60;;
3791;SDS011;1911;53.768;11.474;2022-11-20T12:11:13;3.75;;;2.53;;
3791;SDS011;1911;53.768;11.474;2022-11-20T12:16:18;5.05;;;4.00;;
3791;SDS011;1911;53.768;11.474;2022-11-20T12:18:45;9.50;;;6.70;;
3791;SDS011;1911;53.768;11.474;2022-11-20T12:39:47;4.47;;;3.22;;
3791;SDS011;1911;53.768;11.474;2022-11-20T12:42:21;6.60;;;4.72;;
3791;SDS011;1911;53.768;11.474;2022-11-20T12:47:59;4.25;;;2.40;;
3791;SDS011;1911;53.768;11.474;2022-11-20T12:58:59;4.75;;;2.80;;
3791;SDS011;1911;53.768;11.474;2022-11-20T13:01:32;2.80;;;2.03;;
3791;SDS011;1911;53.768;11.474;2022-11-20T13:06:34;1.30;;;0.83;;
3791;SDS011;1911;53.768;11.474;2022-11-20T13:09:00;4.47;;;2.60;;
3791;SDS011;1911;53.768;11.474;2022-11-20T13:11:32;2.65;;;1.60;;
3791;SDS011;1911;53.768;11.474;2022-11-20T13:16:52;3.83;;;2.42;;
3791;SDS011;1911;53.768;11.474;2022-11-20T13:19:39;4.95;;;1.50;;
3791;SDS011;1911;53.768;11.474;2022-11-20T13:22:07;6.75;;;2.88;;
3791;SDS011;1911;53.768;11.474;2022-11-20T13:24:34;2.38;;;1.70;;
3791;SDS011;1911;53.768;11.474;2022-11-20T13:29:25;2.60;;;1.27;;
3791;SDS011;1911;53.768;11.474;2022-11-20T13:32:00;1.70;;;1.23;;
3791;SDS011;1911;53.768;11.474;2022-11-20T13:34:51;6.05;;;2.22;;
3791;SDS011;1911;53.768;11.474;2022-11-20T13:37:34;6.07;;;2.95;;
3791;SDS011;1911;53.768;11.474;2022-11-20T13:40:06;3.28;;;2.15;;
3791;SDS011;1911;53.768;11.474;2022-11-20T13:42:39;5.50;;;2.40;;
3791;SDS011;1911;53.768;11.474;2022-11-20T13:45:29;1.40;;;0.93;;
3791;SDS011;1911;53.768;11.474;2022-11-20T13:47:56;3.38;;;1.48;;
3791;SDS011;1911;53.768;11.474;2022-11-20T13:53:30;3.10;;;1.90;;
3791;SDS011;1911;53.768;11.474;2022-11-20T13:56:20;2.55;;;1.30;;
3791;SDS011;1911;53.768;11.474;2022-11-20T13:59:53;1.33;;;0.90;;
3791;SDS011;1911;53.768;11.474;2022-11-20T14:02:02;4.35;;;2.00;;
3791;SDS011;1911;53.768;11.474;2022-11-20T14:04:35;3.87;;;1.80;;
3791;SDS011;1911;53.768;11.474;2022-11-20T14:07:05;3.92;;;2.40;;
3791;SDS011;1911;53.768;11.474;2022-11-20T14:09:32;6.30;;;3.78;;
3791;SDS011;1911;53.768;11.474;2022-11-20T14:11:59;6.38;;;3.75;;
3791;SDS011;1911;53.768;11.474;2022-11-20T14:14:28;11.73;;;5.60;;
3791;SDS011;1911;53.768;11.474;2022-11-20T14:17:07;8.25;;;4.28;;
3791;SDS011;1911;53.768;11.474;2022-11-20T14:19:43;7.25;;;4.55;;
3791;SDS011;1911;53.768;11.474;2022-11-20T14:22:18;10.48;;;4.80;;
3791;SDS011;1911;53.768;11.474;2022-11-20T14:24:44;9.40;;;5.13;;
3791;SDS011;1911;53.768;11.474;2022-11-20T14:27:12;10.32;;;5.55;;
3791;SDS011;1911;53.768;11.474;2022-11-20T14:29:45;11.82;;;6.10;;
3791;SDS011;1911;53.768;11.474;2022-11-20T14:32:16;10.80;;;6.43;;
3791;SDS011;1911;53.768;11.474;2022-11-20T14:34:44;9.80;;;5.40;;
3791;SDS011;1911;53.768;11.474;2022-11-20T14:37:13;11.32;;;5.70;;
3791;SDS011;1911;53.768;11.474;2022-11-20T14:39:52;11.60;;;5.78;;
3791;SDS011;1911;53.768;11.474;2022-11-20T14:42:23;13.15;;;5.47;;
3791;SDS011;1911;53.768;11.474;2022-11-20T14:44:50;9.23;;;4.57;;
3791;SDS011;1911;53.768;11.474;2022-11-20T14:47:26;7.80;;;4.38;;
3791;SDS011;1911;53.768;11.474;2022-11-20T14:49:54;7.13;;;3.65;;
3791;SDS011;1911;53.768;11.474;2022-11-20T14:52:25;9.25;;;5.10;;
3791;SDS011;1911;53.768;11.474;2022-11-20T14:54:53;8.68;;;4.82;;
3791;SDS011;1911;53.768;11.474;2022-11-20T14:57:25;10.68;;;5.82;;
3791;SDS011;1911;53.768;11.474;2022-11-20T15:02:42;8.00;;;4.85;;
3791;SDS011;1911;53.768;11.474;2022-11-20T15:05:11;13.68;;;6.55;;
3791;SDS011;1911;53.768;11.474;2022-11-20T15:07:40;11.82;;;6.43;;
3791;SDS011;1911;53.768;11.474;2022-11-20T15:10:19;10.65;;;6.88;;
3791;SDS011;1911;53.768;11.474;2022-11-20T15:12:49;15.18;;;7.28;;
3791;SDS011;1911;53.768;11.474;2022-11-20T15:18:38;13.07;;;6.80;;
3791;SDS011;1911;53.768;11.474;2022-11-20T15:21:12;9.43;;;5.30;;
3791;SDS011;1911;53.768;11.474;2022-11-20T15:23:42;10.02;;;5.60;;
3791;SDS011;1911;53.768;11.474;2022-11-20T15:26:08;9.37;;;5.80;;
3791;SDS011;1911;53.768;11.474;2022-11-20T15:31:05;17.85;;;7.45;;
3791;SDS011;1911;53.768;11.474;2022-11-20T15:33:33;17.85;;;7.57;;
3791;SDS011;1911;53.768;11.474;2022-11-20T15:35:59;19.30;;;7.90;;
3791;SDS011;1911;53.768;11.474;2022-11-20T15:38:25;15.15;;;8.05;;
3791;SDS011;1911;53.768;11.474;2022-11-20T15:40:53;12.60;;;7.53;;
3791;SDS011;1911;53.768;11.474;2022-11-20T15:43:21;11.35;;;6.45;;
3791;SDS011;1911;53.768;11.474;2022-11-20T15:45:51;13.02;;;7.18;;
3791;SDS011;1911;53.768;11.474;2022-11-20T16:45:08;10.55;;;6.00;;
3791;SDS011;1911;53.768;11.474;2022-11-20T16:51:41;8.77;;;4.97;;
3791;SDS011;1911;53.768;11.474;2022-11-20T16:58:05;8.57;;;5.35;;
3791;SDS011;1911;53.768;11.474;2022-11-20T17:00:31;6.23;;;3.63;;
3791;SDS011;1911;53.768;11.474;2022-11-20T17:02:59;9.40;;;4.95;;
3791;SDS011;1911;53.768;11.474;2022-11-20T17:05:25;7.33;;;3.47;;
3791;SDS011;1911;53.768;11.474;2022-11-20T17:07:54;5.43;;;4.47;;
3791;SDS011;1911;53.768;11.474;2022-11-20T17:10:20;8.93;;;5.30;;
3791;SDS011;1911;53.768;11.474;2022-11-20T17:12:45;5.83;;;4.73;;
3791;SDS011;1911;53.768;11.474;2022-11-20T17:15:11;11.07;;;6.27;;
3791;SDS011;1911;53.768;11.474;2022-11-20T17:17:36;11.07;;;4.40;;
3791;SDS011;1911;53.768;11.474;2022-11-20T17:20:02;6.40;;;3.23;;
3791;SDS011;1911;53.768;11.474;2022-11-20T17:22:28;7.00;;;3.77;;
3791;SDS011;1911;53.768;11.474;2022-11-20T17:24:55;13.10;;;7.22;;
3791;SDS011;1911;53.768;11.474;2022-11-20T17:27:26;9.07;;;4.47;;
3791;SDS011;1911;53.768;11.474;2022-11-20T17:29:52;9.82;;;6.13;;
3791;SDS011;1911;53.768;11.474;2022-11-20T17:32:18;20.23;;;10.07;;
3791;SDS011;1911;53.768;11.474;2022-11-20T17:34:44;9.87;;;5.17;;
3791;SDS011;1911;53.768;11.474;2022-11-20T17:37:10;6.03;;;3.57;;
3791;SDS011;1911;53.768;11.474;2022-11-20T17:39:36;4.87;;;3.53;;
3791;SDS011;1911;53.768;11.474;2022-11-20T17:42:01;7.27;;;3.30;;
3791;SDS011;1911;53.768;11.474;2022-11-20T17:44:46;5.80;;;2.85;;
3791;SDS011;1911;53.768;11.474;2022-11-20T17:47:12;8.83;;;4.93;;
3791;SDS011;1911;53.768;11.474;2022-11-20T17:49:37;5.63;;;3.10;;
3791;SDS011;1911;53.768;11.474;2022-11-20T17:52:03;6.27;;;3.60;;
3791;SDS011;1911;53.768;11.474;2022-11-20T17:54:31;3.45;;;2.45;;
3791;SDS011;1911;53.768;11.474;2022-11-20T17:56:56;6.77;;;3.10;;
3791;SDS011;1911;53.768;11.474;2022-11-20T17:59:40;4.25;;;2.55;;
3791;SDS011;1911;53.768;11.474;2022-11-20T18:02:06;4.70;;;3.57;;